Terminal Aerodrome Forecast
Issued by NWS Blacksburg, VA

Home | Current Version | Previous Version | Text Only | Print | Product List | Glossary On
Versions: 1 2 3 4 5 6 7 8 9 10 11 12 13 14 15 16 17 18 19 20 21 22 23 24 25 26 27 28 29 30 31 32 33 34 35 36 37 38 39
000
FTUS41 KRNK 300536
TAFLYH
TAF
KLYH 300536Z 3006/3106 00000KT P6SM VCSH BKN080
     FM300900 00000KT 5SM BR BKN060
     FM301200 00000KT P6SM BKN035
     FM301600 22004KT P6SM BKN070
      TEMPO 3020/3022 3SM TSRA OVC035CB=

USA.gov is the U.S. government's official web portal to all federal, state and local government web resources and services.